sensor_id;sensor_type;location;lat;lon;timestamp;P1;durP1;ratioP1;P2;durP2;ratioP2
52102;SDS011;38101;53.126;6.878;2022-12-18T00:01:34;66.65;;;28.92;;
52102;SDS011;38101;53.126;6.878;2022-12-18T00:04:02;73.90;;;31.33;;
52102;SDS011;38101;53.126;6.878;2022-12-18T00:06:29;67.68;;;29.00;;
52102;SDS011;38101;53.126;6.878;2022-12-18T00:08:56;63.97;;;28.13;;
52102;SDS011;38101;53.126;6.878;2022-12-18T00:11:24;57.33;;;28.77;;
52102;SDS011;38101;53.126;6.878;2022-12-18T00:13:52;58.20;;;26.42;;
52102;SDS011;38101;53.126;6.878;2022-12-18T00:16:20;64.82;;;28.30;;
52102;SDS011;38101;53.126;6.878;2022-12-18T00:18:48;60.53;;;28.75;;
52102;SDS011;38101;53.126;6.878;2022-12-18T00:21:15;61.78;;;29.38;;
52102;SDS011;38101;53.126;6.878;2022-12-18T00:23:42;55.88;;;26.00;;
52102;SDS011;38101;53.126;6.878;2022-12-18T00:26:12;59.80;;;26.55;;
52102;SDS011;38101;53.126;6.878;2022-12-18T00:28:40;60.60;;;28.92;;
52102;SDS011;38101;53.126;6.878;2022-12-18T00:31:10;60.35;;;29.08;;
52102;SDS011;38101;53.126;6.878;2022-12-18T00:33:37;64.45;;;27.48;;
52102;SDS011;38101;53.126;6.878;2022-12-18T00:36:07;62.40;;;27.52;;
52102;SDS011;38101;53.126;6.878;2022-12-18T00:38:53;52.83;;;25.02;;
52102;SDS011;38101;53.126;6.878;2022-12-18T00:41:20;55.95;;;25.35;;
52102;SDS011;38101;53.126;6.878;2022-12-18T00:44:05;57.60;;;26.40;;
52102;SDS011;38101;53.126;6.878;2022-12-18T00:46:32;61.35;;;26.45;;
52102;SDS011;38101;53.126;6.878;2022-12-18T00:48:58;62.85;;;27.73;;
52102;SDS011;38101;53.126;6.878;2022-12-18T00:51:25;61.15;;;28.60;;
52102;SDS011;38101;53.126;6.878;2022-12-18T00:53:52;55.45;;;26.92;;
52102;SDS011;38101;53.126;6.878;2022-12-18T00:56:18;56.90;;;26.88;;
52102;SDS011;38101;53.126;6.878;2022-12-18T00:58:46;60.30;;;26.88;;
52102;SDS011;38101;53.126;6.878;2022-12-18T01:01:12;65.35;;;27.25;;
52102;SDS011;38101;53.126;6.878;2022-12-18T01:03:38;67.65;;;28.40;;
52102;SDS011;38101;53.126;6.878;2022-12-18T01:06:07;61.30;;;28.55;;
52102;SDS011;38101;53.126;6.878;2022-12-18T01:08:35;61.83;;;27.55;;
52102;SDS011;38101;53.126;6.878;2022-12-18T01:11:01;65.35;;;28.08;;
52102;SDS011;38101;53.126;6.878;2022-12-18T01:13:32;62.95;;;27.88;;
52102;SDS011;38101;53.126;6.878;2022-12-18T01:15:58;63.55;;;26.17;;
52102;SDS011;38101;53.126;6.878;2022-12-18T01:18:24;54.83;;;25.77;;
52102;SDS011;38101;53.126;6.878;2022-12-18T01:20:49;61.35;;;27.98;;
52102;SDS011;38101;53.126;6.878;2022-12-18T01:23:15;57.28;;;27.20;;
52102;SDS011;38101;53.126;6.878;2022-12-18T01:25:41;61.30;;;27.90;;
52102;SDS011;38101;53.126;6.878;2022-12-18T01:28:06;66.40;;;28.08;;
52102;SDS011;38101;53.126;6.878;2022-12-18T01:30:32;61.90;;;28.85;;
52102;SDS011;38101;53.126;6.878;2022-12-18T01:32:58;62.13;;;28.70;;
52102;SDS011;38101;53.126;6.878;2022-12-18T01:35:23;66.13;;;28.55;;
52102;SDS011;38101;53.126;6.878;2022-12-18T01:37:49;70.75;;;28.40;;
52102;SDS011;38101;53.126;6.878;2022-12-18T01:40:18;60.63;;;28.00;;
52102;SDS011;38101;53.126;6.878;2022-12-18T01:42:44;58.15;;;27.00;;
52102;SDS011;38101;53.126;6.878;2022-12-18T01:50:10;72.47;;;27.95;;
52102;SDS011;38101;53.126;6.878;2022-12-18T01:52:40;64.32;;;29.58;;
52102;SDS011;38101;53.126;6.878;2022-12-18T01:55:18;72.57;;;29.70;;
52102;SDS011;38101;53.126;6.878;2022-12-18T01:57:47;61.58;;;28.15;;
52102;SDS011;38101;53.126;6.878;2022-12-18T02:00:16;71.05;;;30.08;;
52102;SDS011;38101;53.126;6.878;2022-12-18T02:02:44;67.95;;;29.10;;
52102;SDS011;38101;53.126;6.878;2022-12-18T02:05:12;69.70;;;29.08;;
52102;SDS011;38101;53.126;6.878;2022-12-18T02:18:36;72.72;;;29.00;;
52102;SDS011;38101;53.126;6.878;2022-12-18T02:26:17;70.68;;;30.45;;
52102;SDS011;38101;53.126;6.878;2022-12-18T02:28:46;68.60;;;29.50;;
52102;SDS011;38101;53.126;6.878;2022-12-18T02:31:31;66.65;;;31.85;;
52102;SDS011;38101;53.126;6.878;2022-12-18T02:34:04;64.35;;;30.45;;
52102;SDS011;38101;53.126;6.878;2022-12-18T02:36:33;69.50;;;31.98;;
52102;SDS011;38101;53.126;6.878;2022-12-18T02:39:02;65.38;;;31.20;;
52102;SDS011;38101;53.126;6.878;2022-12-18T02:41:30;71.47;;;31.30;;
52102;SDS011;38101;53.126;6.878;2022-12-18T02:43:58;70.05;;;30.08;;
52102;SDS011;38101;53.126;6.878;2022-12-18T02:46:34;66.05;;;29.35;;
52102;SDS011;38101;53.126;6.878;2022-12-18T02:58:20;69.80;;;31.45;;
52102;SDS011;38101;53.126;6.878;2022-12-18T03:01:23;72.05;;;30.58;;
52102;SDS011;38101;53.126;6.878;2022-12-18T03:03:57;63.50;;;30.27;;
52102;SDS011;38101;53.126;6.878;2022-12-18T03:06:46;62.65;;;30.10;;
52102;SDS011;38101;53.126;6.878;2022-12-18T03:09:17;71.28;;;32.40;;
52102;SDS011;38101;53.126;6.878;2022-12-18T03:11:46;70.05;;;31.20;;
52102;SDS011;38101;53.126;6.878;2022-12-18T03:14:37;68.55;;;29.80;;
52102;SDS011;38101;53.126;6.878;2022-12-18T03:17:05;66.13;;;30.48;;
52102;SDS011;38101;53.126;6.878;2022-12-18T03:19:36;64.88;;;29.17;;
52102;SDS011;38101;53.126;6.878;2022-12-18T03:22:04;69.00;;;29.92;;
52102;SDS011;38101;53.126;6.878;2022-12-18T03:24:32;66.88;;;29.48;;
52102;SDS011;38101;53.126;6.878;2022-12-18T03:27:02;63.03;;;29.27;;
52102;SDS011;38101;53.126;6.878;2022-12-18T03:29:35;63.35;;;28.85;;
52102;SDS011;38101;53.126;6.878;2022-12-18T03:32:29;61.17;;;29.35;;
52102;SDS011;38101;53.126;6.878;2022-12-18T03:34:58;60.97;;;29.40;;
52102;SDS011;38101;53.126;6.878;2022-12-18T03:37:28;61.10;;;29.40;;
52102;SDS011;38101;53.126;6.878;2022-12-18T03:39:53;57.65;;;27.67;;
52102;SDS011;38101;53.126;6.878;2022-12-18T03:42:22;70.85;;;30.30;;
52102;SDS011;38101;53.126;6.878;2022-12-18T03:45:27;66.65;;;29.63;;
52102;SDS011;38101;53.126;6.878;2022-12-18T03:48:08;60.00;;;30.23;;
52102;SDS011;38101;53.126;6.878;2022-12-18T03:50:49;65.93;;;30.77;;
52102;SDS011;38101;53.126;6.878;2022-12-18T03:56:01;62.72;;;29.48;;
52102;SDS011;38101;53.126;6.878;2022-12-18T03:58:29;58.30;;;28.60;;
52102;SDS011;38101;53.126;6.878;2022-12-18T04:00:58;57.03;;;27.15;;
52102;SDS011;38101;53.126;6.878;2022-12-18T04:03:27;53.92;;;28.40;;
52102;SDS011;38101;53.126;6.878;2022-12-18T04:05:56;54.03;;;27.30;;
52102;SDS011;38101;53.126;6.878;2022-12-18T04:08:25;58.28;;;27.40;;
52102;SDS011;38101;53.126;6.878;2022-12-18T04:10:51;49.22;;;24.85;;
52102;SDS011;38101;53.126;6.878;2022-12-18T04:13:23;48.03;;;26.13;;
52102;SDS011;38101;53.126;6.878;2022-12-18T04:15:52;46.03;;;24.35;;
52102;SDS011;38101;53.126;6.878;2022-12-18T04:18:18;44.10;;;23.35;;
52102;SDS011;38101;53.126;6.878;2022-12-18T04:20:44;50.08;;;23.58;;
52102;SDS011;38101;53.126;6.878;2022-12-18T04:23:10;46.25;;;23.25;;
52102;SDS011;38101;53.126;6.878;2022-12-18T04:25:36;46.20;;;22.80;;
52102;SDS011;38101;53.126;6.878;2022-12-18T04:28:02;45.05;;;23.27;;
52102;SDS011;38101;53.126;6.878;2022-12-18T04:30:27;40.80;;;21.52;;
52102;SDS011;38101;53.126;6.878;2022-12-18T04:32:53;38.85;;;20.58;;
52102;SDS011;38101;53.126;6.878;2022-12-18T04:35:19;42.60;;;21.52;;
52102;SDS011;38101;53.126;6.878;2022-12-18T04:37:44;39.83;;;21.55;;
52102;SDS011;38101;53.126;6.878;2022-12-18T04:40:10;35.63;;;21.05;;
52102;SDS011;38101;53.126;6.878;2022-12-18T04:42:36;45.78;;;21.85;;
52102;SDS011;38101;53.126;6.878;2022-12-18T04:45:03;41.50;;;21.92;;
52102;SDS011;38101;53.126;6.878;2022-12-18T04:47:30;38.63;;;20.67;;
52102;SDS011;38101;53.126;6.878;2022-12-18T04:49:56;40.42;;;22.70;;
52102;SDS011;38101;53.126;6.878;2022-12-18T04:52:21;39.13;;;21.35;;
52102;SDS011;38101;53.126;6.878;2022-12-18T04:54:47;37.50;;;20.25;;
52102;SDS011;38101;53.126;6.878;2022-12-18T04:57:13;38.53;;;20.85;;
52102;SDS011;38101;53.126;6.878;2022-12-18T04:59:38;41.30;;;21.90;;
52102;SDS011;38101;53.126;6.878;2022-12-18T05:02:05;41.10;;;20.65;;
52102;SDS011;38101;53.126;6.878;2022-12-18T05:04:30;38.92;;;20.08;;
52102;SDS011;38101;53.126;6.878;2022-12-18T05:06:56;44.10;;;22.00;;
52102;SDS011;38101;53.126;6.878;2022-12-18T05:09:22;39.67;;;19.20;;
52102;SDS011;38101;53.126;6.878;2022-12-18T05:11:48;38.80;;;20.83;;
52102;SDS011;38101;53.126;6.878;2022-12-18T05:14:14;41.38;;;20.73;;
52102;SDS011;38101;53.126;6.878;2022-12-18T05:16:40;39.72;;;21.00;;
52102;SDS011;38101;53.126;6.878;2022-12-18T05:19:06;37.90;;;19.67;;
52102;SDS011;38101;53.126;6.878;2022-12-18T05:21:31;34.88;;;19.77;;
52102;SDS011;38101;53.126;6.878;2022-12-18T05:23:57;38.03;;;19.83;;
52102;SDS011;38101;53.126;6.878;2022-12-18T05:26:23;38.00;;;19.85;;
52102;SDS011;38101;53.126;6.878;2022-12-18T05:28:48;41.08;;;20.60;;
52102;SDS011;38101;53.126;6.878;2022-12-18T05:31:14;37.72;;;19.45;;
52102;SDS011;38101;53.126;6.878;2022-12-18T05:33:40;36.92;;;19.80;;
52102;SDS011;38101;53.126;6.878;2022-12-18T05:36:06;38.28;;;19.20;;
52102;SDS011;38101;53.126;6.878;2022-12-18T05:38:34;35.75;;;19.00;;
52102;SDS011;38101;53.126;6.878;2022-12-18T05:41:01;37.38;;;19.95;;
52102;SDS011;38101;53.126;6.878;2022-12-18T05:43:27;40.97;;;19.70;;
52102;SDS011;38101;53.126;6.878;2022-12-18T05:45:53;35.30;;;19.00;;
52102;SDS011;38101;53.126;6.878;2022-12-18T05:48:20;33.30;;;18.40;;
52102;SDS011;38101;53.126;6.878;2022-12-18T05:50:47;37.38;;;19.42;;
52102;SDS011;38101;53.126;6.878;2022-12-18T05:53:14;35.28;;;19.35;;
52102;SDS011;38101;53.126;6.878;2022-12-18T05:55:42;37.03;;;19.33;;
52102;SDS011;38101;53.126;6.878;2022-12-18T05:58:09;33.35;;;18.45;;
52102;SDS011;38101;53.126;6.878;2022-12-18T06:00:37;38.25;;;19.83;;
52102;SDS011;38101;53.126;6.878;2022-12-18T06:03:10;34.38;;;18.52;;
52102;SDS011;38101;53.126;6.878;2022-12-18T06:05:37;35.65;;;19.13;;
52102;SDS011;38101;53.126;6.878;2022-12-18T06:08:05;33.70;;;18.90;;
52102;SDS011;38101;53.126;6.878;2022-12-18T06:10:31;37.50;;;18.83;;
52102;SDS011;38101;53.126;6.878;2022-12-18T06:12:57;33.75;;;18.90;;
52102;SDS011;38101;53.126;6.878;2022-12-18T06:15:23;34.28;;;18.50;;
52102;SDS011;38101;53.126;6.878;2022-12-18T06:17:49;32.75;;;18.25;;
52102;SDS011;38101;53.126;6.878;2022-12-18T06:20:15;33.45;;;18.02;;
52102;SDS011;38101;53.126;6.878;2022-12-18T06:22:41;32.05;;;18.73;;
52102;SDS011;38101;53.126;6.878;2022-12-18T06:25:07;30.90;;;17.60;;
52102;SDS011;38101;53.126;6.878;2022-12-18T06:27:33;31.92;;;18.13;;
52102;SDS011;38101;53.126;6.878;2022-12-18T06:29:59;32.95;;;18.02;;
52102;SDS011;38101;53.126;6.878;2022-12-18T06:32:25;30.73;;;17.13;;
52102;SDS011;38101;53.126;6.878;2022-12-18T06:34:51;29.55;;;17.00;;
52102;SDS011;38101;53.126;6.878;2022-12-18T06:37:16;33.25;;;17.63;;
52102;SDS011;38101;53.126;6.878;2022-12-18T06:39:42;32.35;;;17.42;;
52102;SDS011;38101;53.126;6.878;2022-12-18T06:42:08;29.25;;;16.35;;
52102;SDS011;38101;53.126;6.878;2022-12-18T06:44:33;27.38;;;16.63;;
52102;SDS011;38101;53.126;6.878;2022-12-18T06:46:59;28.33;;;17.02;;
52102;SDS011;38101;53.126;6.878;2022-12-18T06:49:25;29.50;;;16.38;;
52102;SDS011;38101;53.126;6.878;2022-12-18T06:51:50;31.58;;;17.55;;
52102;SDS011;38101;53.126;6.878;2022-12-18T06:54:16;29.95;;;16.38;;
52102;SDS011;38101;53.126;6.878;2022-12-18T06:56:44;27.80;;;15.93;;
52102;SDS011;38101;53.126;6.878;2022-12-18T06:59:10;27.88;;;16.85;;
52102;SDS011;38101;53.126;6.878;2022-12-18T07:01:37;30.33;;;16.33;;
52102;SDS011;38101;53.126;6.878;2022-12-18T07:04:02;31.48;;;17.35;;
52102;SDS011;38101;53.126;6.878;2022-12-18T07:06:28;28.95;;;16.20;;
52102;SDS011;38101;53.126;6.878;2022-12-18T07:08:54;25.60;;;16.30;;
52102;SDS011;38101;53.126;6.878;2022-12-18T07:11:20;28.70;;;17.38;;
52102;SDS011;38101;53.126;6.878;2022-12-18T07:13:46;28.15;;;16.98;;
52102;SDS011;38101;53.126;6.878;2022-12-18T07:16:14;26.27;;;16.45;;
52102;SDS011;38101;53.126;6.878;2022-12-18T07:18:42;29.30;;;16.02;;
52102;SDS011;38101;53.126;6.878;2022-12-18T07:21:11;29.10;;;17.42;;
52102;SDS011;38101;53.126;6.878;2022-12-18T07:23:38;29.98;;;17.55;;
52102;SDS011;38101;53.126;6.878;2022-12-18T07:26:05;30.30;;;15.60;;
52102;SDS011;38101;53.126;6.878;2022-12-18T07:28:33;24.88;;;15.75;;
52102;SDS011;38101;53.126;6.878;2022-12-18T07:31:03;30.95;;;16.67;;
52102;SDS011;38101;53.126;6.878;2022-12-18T07:33:29;29.25;;;17.27;;
52102;SDS011;38101;53.126;6.878;2022-12-18T07:35:55;25.60;;;15.25;;
52102;SDS011;38101;53.126;6.878;2022-12-18T07:38:21;27.83;;;15.07;;
52102;SDS011;38101;53.126;6.878;2022-12-18T07:40:47;27.10;;;15.30;;
52102;SDS011;38101;53.126;6.878;2022-12-18T07:43:13;28.65;;;16.35;;
52102;SDS011;38101;53.126;6.878;2022-12-18T07:45:38;24.65;;;15.50;;
52102;SDS011;38101;53.126;6.878;2022-12-18T07:48:04;27.30;;;16.95;;
52102;SDS011;38101;53.126;6.878;2022-12-18T07:50:30;25.38;;;16.65;;
52102;SDS011;38101;53.126;6.878;2022-12-18T07:52:56;28.27;;;15.73;;
52102;SDS011;38101;53.126;6.878;2022-12-18T07:55:21;23.45;;;14.20;;
52102;SDS011;38101;53.126;6.878;2022-12-18T07:57:47;25.60;;;15.60;;
52102;SDS011;38101;53.126;6.878;2022-12-18T08:00:13;23.90;;;14.38;;
52102;SDS011;38101;53.126;6.878;2022-12-18T08:02:39;23.80;;;15.32;;
52102;SDS011;38101;53.126;6.878;2022-12-18T08:05:05;25.67;;;15.00;;
52102;SDS011;38101;53.126;6.878;2022-12-18T08:07:30;25.05;;;14.52;;
52102;SDS011;38101;53.126;6.878;2022-12-18T08:09:56;24.38;;;14.57;;
52102;SDS011;38101;53.126;6.878;2022-12-18T08:12:22;25.50;;;13.98;;
52102;SDS011;38101;53.126;6.878;2022-12-18T08:14:47;24.08;;;13.93;;
52102;SDS011;38101;53.126;6.878;2022-12-18T08:17:13;23.45;;;14.10;;
52102;SDS011;38101;53.126;6.878;2022-12-18T08:19:39;23.23;;;15.23;;
52102;SDS011;38101;53.126;6.878;2022-12-18T08:22:04;28.50;;;15.93;;
52102;SDS011;38101;53.126;6.878;2022-12-18T08:24:30;25.85;;;14.65;;
52102;SDS011;38101;53.126;6.878;2022-12-18T08:26:56;25.50;;;14.55;;
52102;SDS011;38101;53.126;6.878;2022-12-18T08:29:22;29.58;;;14.52;;
52102;SDS011;38101;53.126;6.878;2022-12-18T08:31:48;22.30;;;13.60;;
52102;SDS011;38101;53.126;6.878;2022-12-18T08:34:14;22.90;;;14.07;;
52102;SDS011;38101;53.126;6.878;2022-12-18T08:36:40;22.83;;;14.15;;
52102;SDS011;38101;53.126;6.878;2022-12-18T08:39:05;24.20;;;13.68;;
52102;SDS011;38101;53.126;6.878;2022-12-18T08:41:31;20.80;;;13.60;;
52102;SDS011;38101;53.126;6.878;2022-12-18T08:43:57;22.15;;;13.68;;
52102;SDS011;38101;53.126;6.878;2022-12-18T08:46:42;25.50;;;13.93;;
52102;SDS011;38101;53.126;6.878;2022-12-18T08:49:08;24.42;;;15.50;;
52102;SDS011;38101;53.126;6.878;2022-12-18T08:51:36;23.27;;;14.90;;
52102;SDS011;38101;53.126;6.878;2022-12-18T08:54:02;22.65;;;14.95;;
52102;SDS011;38101;53.126;6.878;2022-12-18T08:56:28;22.55;;;13.63;;
52102;SDS011;38101;53.126;6.878;2022-12-18T08:58:55;22.38;;;13.70;;
52102;SDS011;38101;53.126;6.878;2022-12-18T09:01:21;20.60;;;12.75;;
52102;SDS011;38101;53.126;6.878;2022-12-18T09:03:47;18.15;;;12.25;;
52102;SDS011;38101;53.126;6.878;2022-12-18T09:06:14;22.48;;;12.88;;
52102;SDS011;38101;53.126;6.878;2022-12-18T09:08:42;20.90;;;11.98;;
52102;SDS011;38101;53.126;6.878;2022-12-18T09:11:19;19.05;;;12.57;;
52102;SDS011;38101;53.126;6.878;2022-12-18T09:13:49;18.85;;;12.65;;
52102;SDS011;38101;53.126;6.878;2022-12-18T09:16:15;18.92;;;11.82;;
52102;SDS011;38101;53.126;6.878;2022-12-18T09:18:41;17.85;;;12.00;;
52102;SDS011;38101;53.126;6.878;2022-12-18T09:21:11;19.25;;;11.57;;
52102;SDS011;38101;53.126;6.878;2022-12-18T09:23:38;18.52;;;10.95;;
52102;SDS011;38101;53.126;6.878;2022-12-18T09:26:04;19.85;;;10.60;;
52102;SDS011;38101;53.126;6.878;2022-12-18T09:28:30;19.00;;;11.48;;
52102;SDS011;38101;53.126;6.878;2022-12-18T09:30:56;15.50;;;10.23;;
52102;SDS011;38101;53.126;6.878;2022-12-18T09:33:21;18.50;;;11.32;;
52102;SDS011;38101;53.126;6.878;2022-12-18T09:35:47;23.48;;;12.02;;
52102;SDS011;38101;53.126;6.878;2022-12-18T09:38:14;18.02;;;10.75;;
52102;SDS011;38101;53.126;6.878;2022-12-18T09:40:43;17.42;;;11.32;;
52102;SDS011;38101;53.126;6.878;2022-12-18T09:43:26;20.65;;;11.40;;
52102;SDS011;38101;53.126;6.878;2022-12-18T09:46:11;21.50;;;13.80;;
52102;SDS011;38101;53.126;6.878;2022-12-18T09:48:45;29.63;;;22.90;;
52102;SDS011;38101;53.126;6.878;2022-12-18T09:51:22;29.05;;;23.65;;
52102;SDS011;38101;53.126;6.878;2022-12-18T09:54:00;36.25;;;27.40;;
52102;SDS011;38101;53.126;6.878;2022-12-18T09:56:29;28.40;;;23.08;;
52102;SDS011;38101;53.126;6.878;2022-12-18T09:59:00;19.77;;;13.20;;
52102;SDS011;38101;53.126;6.878;2022-12-18T10:01:28;14.30;;;10.75;;
52102;SDS011;38101;53.126;6.878;2022-12-18T10:03:56;14.35;;;9.50;;
52102;SDS011;38101;53.126;6.878;2022-12-18T10:12:21;15.98;;;8.75;;
52102;SDS011;38101;53.126;6.878;2022-12-18T10:15:01;13.40;;;8.23;;
52102;SDS011;38101;53.126;6.878;2022-12-18T10:20:27;15.75;;;8.35;;
52102;SDS011;38101;53.126;6.878;2022-12-18T10:23:02;14.55;;;8.40;;
52102;SDS011;38101;53.126;6.878;2022-12-18T10:28:34;35.83;;;10.77;;
52102;SDS011;38101;53.126;6.878;2022-12-18T10:31:01;12.05;;;7.13;;
52102;SDS011;38101;53.126;6.878;2022-12-18T10:33:30;11.52;;;7.40;;
52102;SDS011;38101;53.126;6.878;2022-12-18T10:35:57;18.95;;;11.00;;
52102;SDS011;38101;53.126;6.878;2022-12-18T10:43:21;27.02;;;13.93;;
52102;SDS011;38101;53.126;6.878;2022-12-18T10:48:26;27.92;;;11.00;;
52102;SDS011;38101;53.126;6.878;2022-12-18T10:50:52;17.10;;;8.90;;
52102;SDS011;38101;53.126;6.878;2022-12-18T10:53:23;22.25;;;11.68;;
52102;SDS011;38101;53.126;6.878;2022-12-18T10:58:30;36.20;;;16.08;;
52102;SDS011;38101;53.126;6.878;2022-12-18T11:06:19;14.80;;;8.65;;
52102;SDS011;38101;53.126;6.878;2022-12-18T11:11:50;44.95;;;10.75;;
52102;SDS011;38101;53.126;6.878;2022-12-18T11:14:22;14.40;;;7.25;;
52102;SDS011;38101;53.126;6.878;2022-12-18T11:16:50;12.82;;;6.72;;
52102;SDS011;38101;53.126;6.878;2022-12-18T11:21:56;24.88;;;8.73;;
52102;SDS011;38101;53.126;6.878;2022-12-18T11:24:29;16.38;;;7.43;;
52102;SDS011;38101;53.126;6.878;2022-12-18T11:27:00;10.40;;;6.15;;
52102;SDS011;38101;53.126;6.878;2022-12-18T11:29:38;24.52;;;7.53;;
52102;SDS011;38101;53.126;6.878;2022-12-18T11:34:59;11.80;;;6.55;;
52102;SDS011;38101;53.126;6.878;2022-12-18T11:37:29;11.75;;;6.80;;
52102;SDS011;38101;53.126;6.878;2022-12-18T11:40:06;11.77;;;7.13;;
52102;SDS011;38101;53.126;6.878;2022-12-18T11:42:41;13.77;;;7.03;;
52102;SDS011;38101;53.126;6.878;2022-12-18T11:53:18;22.02;;;8.75;;
52102;SDS011;38101;53.126;6.878;2022-12-18T12:00:54;11.07;;;6.63;;
52102;SDS011;38101;53.126;6.878;2022-12-18T12:03:29;10.48;;;7.07;;
52102;SDS011;38101;53.126;6.878;2022-12-18T12:11:44;11.65;;;6.50;;
52102;SDS011;38101;53.126;6.878;2022-12-18T12:15:43;12.93;;;6.60;;
52102;SDS011;38101;53.126;6.878;2022-12-18T12:17:48;14.27;;;6.90;;
52102;SDS011;38101;53.126;6.878;2022-12-18T12:20:36;18.77;;;6.82;;
52102;SDS011;38101;53.126;6.878;2022-12-18T12:26:16;10.40;;;6.43;;
52102;SDS011;38101;53.126;6.878;2022-12-18T12:31:29;26.55;;;9.75;;
52102;SDS011;38101;53.126;6.878;2022-12-18T12:39:11;11.75;;;7.15;;
52102;SDS011;38101;53.126;6.878;2022-12-18T12:41:41;15.35;;;7.88;;
52102;SDS011;38101;53.126;6.878;2022-12-18T12:44:29;15.98;;;7.97;;
52102;SDS011;38101;53.126;6.878;2022-12-18T12:47:04;15.43;;;8.80;;
52102;SDS011;38101;53.126;6.878;2022-12-18T12:49:37;15.13;;;8.50;;
52102;SDS011;38101;53.126;6.878;2022-12-18T12:52:06;12.15;;;7.18;;
52102;SDS011;38101;53.126;6.878;2022-12-18T12:54:37;13.95;;;7.15;;
52102;SDS011;38101;53.126;6.878;2022-12-18T12:57:12;11.13;;;7.03;;
52102;SDS011;38101;53.126;6.878;2022-12-18T13:08:03;9.90;;;6.15;;
52102;SDS011;38101;53.126;6.878;2022-12-18T13:10:36;10.65;;;6.55;;
52102;SDS011;38101;53.126;6.878;2022-12-18T13:13:08;19.00;;;7.22;;
52102;SDS011;38101;53.126;6.878;2022-12-18T13:28:16;11.30;;;6.72;;
52102;SDS011;38101;53.126;6.878;2022-12-18T13:30:47;10.57;;;6.78;;
52102;SDS011;38101;53.126;6.878;2022-12-18T13:38:38;11.38;;;7.50;;
52102;SDS011;38101;53.126;6.878;2022-12-18T13:43:50;11.90;;;6.60;;
52102;SDS011;38101;53.126;6.878;2022-12-18T13:51:39;11.88;;;7.10;;
52102;SDS011;38101;53.126;6.878;2022-12-18T13:54:18;12.57;;;7.03;;
52102;SDS011;38101;53.126;6.878;2022-12-18T13:56:58;10.73;;;6.78;;
52102;SDS011;38101;53.126;6.878;2022-12-18T13:59:24;13.02;;;7.57;;
52102;SDS011;38101;53.126;6.878;2022-12-18T14:01:53;11.35;;;7.85;;
52102;SDS011;38101;53.126;6.878;2022-12-18T14:04:27;13.23;;;7.60;;
52102;SDS011;38101;53.126;6.878;2022-12-18T14:06:58;10.77;;;7.50;;
52102;SDS011;38101;53.126;6.878;2022-12-18T14:09:33;12.80;;;7.60;;
52102;SDS011;38101;53.126;6.878;2022-12-18T14:12:05;13.43;;;8.18;;
52102;SDS011;38101;53.126;6.878;2022-12-18T14:14:50;12.18;;;8.27;;
52102;SDS011;38101;53.126;6.878;2022-12-18T14:17:18;12.00;;;7.53;;
52102;SDS011;38101;53.126;6.878;2022-12-18T14:19:45;13.45;;;7.93;;
52102;SDS011;38101;53.126;6.878;2022-12-18T14:22:20;12.70;;;7.93;;
52102;SDS011;38101;53.126;6.878;2022-12-18T14:27:41;12.27;;;7.97;;
52102;SDS011;38101;53.126;6.878;2022-12-18T14:33:09;12.10;;;8.25;;
52102;SDS011;38101;53.126;6.878;2022-12-18T14:35:41;10.40;;;7.50;;
52102;SDS011;38101;53.126;6.878;2022-12-18T14:38:09;13.85;;;8.57;;
52102;SDS011;38101;53.126;6.878;2022-12-18T14:40:36;13.27;;;8.23;;
52102;SDS011;38101;53.126;6.878;2022-12-18T14:43:02;14.07;;;8.05;;
52102;SDS011;38101;53.126;6.878;2022-12-18T14:45:38;14.05;;;8.18;;
52102;SDS011;38101;53.126;6.878;2022-12-18T14:48:16;13.38;;;8.57;;
52102;SDS011;38101;53.126;6.878;2022-12-18T14:50:44;12.23;;;7.78;;
52102;SDS011;38101;53.126;6.878;2022-12-18T14:56:13;13.43;;;8.80;;
52102;SDS011;38101;53.126;6.878;2022-12-18T14:58:54;15.32;;;8.73;;
52102;SDS011;38101;53.126;6.878;2022-12-18T15:01:35;13.48;;;9.20;;
52102;SDS011;38101;53.126;6.878;2022-12-18T15:04:04;14.23;;;8.75;;
52102;SDS011;38101;53.126;6.878;2022-12-18T15:06:48;13.10;;;8.63;;
52102;SDS011;38101;53.126;6.878;2022-12-18T15:09:24;12.00;;;8.52;;
52102;SDS011;38101;53.126;6.878;2022-12-18T15:11:55;14.15;;;8.65;;
52102;SDS011;38101;53.126;6.878;2022-12-18T15:17:17;15.02;;;8.98;;
52102;SDS011;38101;53.126;6.878;2022-12-18T15:19:50;13.98;;;8.57;;
52102;SDS011;38101;53.126;6.878;2022-12-18T15:22:22;12.32;;;8.38;;
52102;SDS011;38101;53.126;6.878;2022-12-18T15:24:51;17.00;;;8.70;;
52102;SDS011;38101;53.126;6.878;2022-12-18T15:32:31;18.08;;;11.85;;
52102;SDS011;38101;53.126;6.878;2022-12-18T15:37:43;14.98;;;8.88;;
52102;SDS011;38101;53.126;6.878;2022-12-18T15:40:16;14.25;;;9.25;;
52102;SDS011;38101;53.126;6.878;2022-12-18T15:42:44;16.23;;;9.80;;
52102;SDS011;38101;53.126;6.878;2022-12-18T15:45:30;15.45;;;9.88;;
52102;SDS011;38101;53.126;6.878;2022-12-18T15:47:56;13.10;;;8.63;;
52102;SDS011;38101;53.126;6.878;2022-12-18T15:50:22;14.95;;;8.68;;
52102;SDS011;38101;53.126;6.878;2022-12-18T15:52:49;14.00;;;9.48;;
52102;SDS011;38101;53.126;6.878;2022-12-18T15:55:18;16.08;;;8.75;;
52102;SDS011;38101;53.126;6.878;2022-12-18T15:58:04;14.73;;;8.80;;
52102;SDS011;38101;53.126;6.878;2022-12-18T16:00:31;14.70;;;8.82;;
52102;SDS011;38101;53.126;6.878;2022-12-18T16:02:59;12.70;;;8.43;;
52102;SDS011;38101;53.126;6.878;2022-12-18T16:05:24;14.65;;;8.75;;
52102;SDS011;38101;53.126;6.878;2022-12-18T16:07:51;14.77;;;8.63;;
52102;SDS011;38101;53.126;6.878;2022-12-18T16:10:17;12.60;;;9.13;;
52102;SDS011;38101;53.126;6.878;2022-12-18T16:12:43;16.13;;;8.90;;
52102;SDS011;38101;53.126;6.878;2022-12-18T16:15:10;15.45;;;9.57;;
52102;SDS011;38101;53.126;6.878;2022-12-18T16:17:39;16.10;;;9.70;;
52102;SDS011;38101;53.126;6.878;2022-12-18T16:20:05;15.75;;;8.85;;
52102;SDS011;38101;53.126;6.878;2022-12-18T16:22:36;16.13;;;9.65;;
52102;SDS011;38101;53.126;6.878;2022-12-18T16:25:02;16.05;;;10.27;;
52102;SDS011;38101;53.126;6.878;2022-12-18T16:27:30;17.85;;;9.88;;
52102;SDS011;38101;53.126;6.878;2022-12-18T16:29:55;17.05;;;9.60;;
52102;SDS011;38101;53.126;6.878;2022-12-18T16:32:21;13.48;;;9.05;;
52102;SDS011;38101;53.126;6.878;2022-12-18T16:34:47;14.57;;;9.30;;
52102;SDS011;38101;53.126;6.878;2022-12-18T16:37:14;13.85;;;8.88;;
52102;SDS011;38101;53.126;6.878;2022-12-18T16:39:40;14.43;;;9.60;;
52102;SDS011;38101;53.126;6.878;2022-12-18T16:42:10;15.85;;;10.07;;
52102;SDS011;38101;53.126;6.878;2022-12-18T16:44:46;19.30;;;10.25;;
52102;SDS011;38101;53.126;6.878;2022-12-18T16:47:13;19.48;;;11.75;;
52102;SDS011;38101;53.126;6.878;2022-12-18T16:49:39;23.73;;;15.80;;
52102;SDS011;38101;53.126;6.878;2022-12-18T16:52:05;20.17;;;14.90;;
52102;SDS011;38101;53.126;6.878;2022-12-18T16:54:32;16.42;;;11.95;;
52102;SDS011;38101;53.126;6.878;2022-12-18T16:56:59;15.80;;;11.52;;
52102;SDS011;38101;53.126;6.878;2022-12-18T16:59:25;18.00;;;11.55;;
52102;SDS011;38101;53.126;6.878;2022-12-18T17:01:51;14.98;;;10.82;;
52102;SDS011;38101;53.126;6.878;2022-12-18T17:04:17;15.63;;;10.57;;
52102;SDS011;38101;53.126;6.878;2022-12-18T17:06:44;16.38;;;10.40;;
52102;SDS011;38101;53.126;6.878;2022-12-18T17:09:12;11.13;;;7.40;;
52102;SDS011;38101;53.126;6.878;2022-12-18T17:11:40;13.32;;;8.55;;